Home > Products > Valid Products > TAF

000
FTUS43 KFSD 302320
TAFHON
TAF
KHON 302320Z 3100/3124 35014G20KT P6SM BKN020
     FM310400 36013KT P6SM SCT018
     FM310700 01006KT P6SM SKC
     FM311100 VRB03KT P6SM SKC=



000
FTUS43 KFSD 302320
TAFSUX
TAF
KSUX 302320Z 3100/3124 34016G23KT P6SM BKN020
     FM310630 35010KT P6SM SCT015
     FM311500 03010KT P6SM SKC=



000
FTUS43 KFSD 302320
TAFFSD
TAF
KFSD 302320Z 3100/3124 35017G25KT P6SM OVC022
     FM310100 36014G20KT P6SM BKN022
     FM310430 36012KT P6SM SCT025
     FM310800 36007KT P6SM SKC
     FM311400 03010KT P6SM SKC
     FM312100 09005KT P6SM SKC=



000
FTUS43 KFSD 301955 CCA
TAFSUX
TAF COR
KSUX 301955Z 3020/3118 33017G25KT P6SM FEW035
     FM302100 34018G25KT P6SM SCT020 BKN040
     FM310000 34016G23KT P6SM BKN015
     FM310600 35010KT P6SM SCT015
     FM311500 03010KT P6SM SKC=



000
FTUS43 KFSD 301954 AAA
TAFSUX
TAF AMD
KSUX 301954Z 3020/3118 33016G23KT P6SM FEW035
     FM302000 34018G25KT P6SM SCT020 BKN040
     FM310000 34016G23KT P6SM BKN015
     FM310600 35010KT P6SM SCT015
     FM311500 03010KT P6SM SKC=



000
FTUS43 KFSD 301935 AAB
TAFFSD
TAF AMD
KFSD 301935Z 3020/3118 34017G24KT P6SM SCT022 BKN035
     FM302000 35017G25KT P6SM OVC018
     FM310100 36014G20KT P6SM BKN018
     FM310400 36012KT P6SM SCT025
     FM310800 36007KT P6SM SKC
     FM311400 03010KT P6SM SKC=



000
FTUS43 KFSD 301930 AAA
TAFHON
TAF AMD
KHON 301930Z 3020/3118 35017G24KT P6SM OVC012
     FM302100 35016G23KT P6SM BKN025
     FM302300 35014G20KT P6SM BKN018
     FM310300 36013KT P6SM SCT018
     FM310700 01006KT P6SM SKC
     FM311100 VRB03KT P6SM SKC=



000
FTUS43 KFSD 301742
TAFFSD
TAF
KFSD 301742Z 3018/3118 34014G24KT P6SM SCT022 BKN035
     FM301900 34017G25KT P6SM OVC018
     FM310100 01012KT P6SM BKN018
     FM310800 36007KT P6SM SCT015
     FM311400 03010KT P6SM SKC=



000
FTUS43 KFSD 301742
TAFHON
TAF
KHON 301742Z 3018/3118 35017G24KT P6SM OVC012
     FM302100 35016G23KT P6SM BKN025
     FM310100 36010KT P6SM BKN018
     FM310700 01006KT P6SM SKC
     FM311100 VRB03KT P6SM SKC=



000
FTUS43 KFSD 301742
TAFSUX
TAF
KSUX 301742Z 3018/3118 33016G23KT P6SM FEW035
     FM302000 34018G25KT P6SM SCT020 BKN040
     FM310000 34016G23KT P6SM BKN015
     FM311000 35010KT P6SM SCT015
     FM311500 03010KT P6SM SKC=



000
FTUS43 KFSD 301742
TAFFSD
TAF
KFSD 301742Z 3018/3118 34014G24KT P6SM SCT022 BKN035
     FM301900 34017G25KT P6SM OVC018
     FM310100 01012KT P6SM BKN018
     FM310800 36007KT P6SM SCT015
     FM311400 03010KT P6SM SKC=



000
FTUS43 KFSD 301742
TAFHON
TAF
KHON 301742Z 3018/3118 35017G24KT P6SM OVC012
     FM302100 35016G23KT P6SM BKN025
     FM310100 36010KT P6SM BKN018
     FM310700 01006KT P6SM SKC
     FM311100 VRB03KT P6SM SKC=



000
FTUS43 KFSD 301742
TAFSUX
TAF
KSUX 301742Z 3018/3118 33016G23KT P6SM FEW035
     FM302000 34018G25KT P6SM SCT020 BKN040
     FM310000 34016G23KT P6SM BKN015
     FM311000 35010KT P6SM SCT015
     FM311500 03010KT P6SM SKC=



000
FTUS43 KFSD 301611 AAA
TAFSUX
TAF AMD
KSUX 301611Z 3016/3112 33014G22KT P6SM FEW035
     FM301900 34017G25KT P6SM BKN040
     FM302200 34016G23KT P6SM BKN015
     FM310300 35015G22KT P6SM SKC
     FM310700 35010KT P6SM SKC=



000
FTUS43 KFSD 301547 AAB
TAFHON
TAF AMD
KHON 301547Z 3016/3112 34015G21KT P6SM BKN012
     FM301600 35017G24KT P6SM OVC009
     FM302000 35015G22KT P6SM BKN025
     FM302300 35014KT P6SM SCT035
     FM310300 35008KT P6SM SKC=



000
FTUS43 KFSD 301405 AAB
TAFFSD
TAF AMD
KFSD 301405Z 3014/3112 33011KT P6SM SCT090 BKN150
     FM301700 34014KT P6SM SCT025 BKN040
     FM301900 34018G28KT P6SM BKN030
     FM310100 01012KT P6SM SCT035=



000
FTUS43 KFSD 301403 AAA
TAFHON
TAF AMD
KHON 301403Z 3014/3112 34014KT P6SM SCT025
     FM301600 35017G24KT P6SM SCT009 BKN030
     FM302300 35014KT P6SM SCT035
     FM310300 35008KT P6SM SKC=



000
FTUS43 KFSD 301129
TAFHON
TAF
KHON 301129Z 3012/3112 29009KT P6SM SCT050
     FM301600 33017G24KT P6SM BKN030
     FM302300 35014KT P6SM SCT035
     FM310300 35008KT P6SM SKC=



000
FTUS43 KFSD 301129
TAFSUX
TAF
KSUX 301129Z 3012/3112 13004KT P6SM SCT120
     FM301500 30008KT P6SM SCT050
     FM301800 33014G20KT P6SM BKN040
     FM302100 34018G25KT P6SM BKN035
     FM310300 35015G22KT P6SM SKC
     FM310700 35010KT P6SM SKC=



000
FTUS43 KFSD 301129
TAFFSD
TAF
KFSD 301129Z 3012/3112 15005KT P6SM SCT090 BKN150
     FM301500 29008KT P6SM SCT050
     FM301700 33012KT P6SM BKN040
     FM301900 34018G28KT P6SM BKN030
     FM310100 01012KT P6SM SCT035=



000
FTUS43 KFSD 300520
TAFFSD
TAF
KFSD 300520Z 3006/3106 15005KT P6SM SCT090 BKN150
     FM301300 29008KT P6SM SCT050
     FM301700 33012KT P6SM BKN040
     FM301900 34018G28KT P6SM BKN030
     FM310200 35014KT P6SM SCT035=



000
FTUS43 KFSD 300520
TAFSUX
TAF
KSUX 300520Z 3006/3106 13004KT P6SM SCT120
     FM301500 30008KT P6SM SCT050
     FM301800 33014G20KT P6SM BKN040
     FM302100 34018G25KT P6SM BKN035
     FM310300 35015G22KT P6SM SKC=



000
FTUS43 KFSD 300520
TAFHON
TAF
KHON 300520Z 3006/3106 18006KT P6SM SCT090
     FM301000 29009KT P6SM SCT050
     FM301500 33018G25KT P6SM BKN030
     FM302300 35014KT P6SM SCT035
     FM310300 35008KT P6SM SKC=



000
FTUS43 KFSD 292330
TAFHON
TAF
KHON 292330Z 3000/3024 16005KT P6SM SCT090 BKN150
     FM300900 29009KT P6SM BKN050
     FM301400 33014G22KT P6SM BKN025
     FM301600 34018G25KT P6SM OVC025
     FM302200 34015KT P6SM SCT030=



000
FTUS43 KFSD 292330
TAFFSD
TAF
KFSD 292330Z 3000/3024 17005KT P6SM BKN150
     FM301200 29008KT P6SM BKN120
     FM301500 32010KT P6SM BKN040
     FM301700 34018G28KT P6SM OVC025
     FM302300 35014G20KT P6SM OVC030=



000
FTUS43 KFSD 292330
TAFSUX
TAF
KSUX 292330Z 3000/3024 13004KT P6SM SCT150
     FM301400 30008KT P6SM SCT050
     FM301700 33015G22KT P6SM BKN030
     FM301900 34018G25KT P6SM OVC030=



000
FTUS43 KFSD 291734
TAFHON
TAF
KHON 291734Z 2918/3018 17009KT P6SM SKC
     FM300000 16004KT P6SM BKN080
     FM300700 29009KT P6SM BKN050
     FM301100 31012KT P6SM SCT045
     FM301400 34014G22KT P6SM BKN025=



000
FTUS43 KFSD 291734
TAFFSD
TAF
KFSD 291734Z 2918/3018 17007KT P6SM SKC
     FM300200 17005KT P6SM BKN080
     FM301000 27005KT P6SM BKN060
     FM301300 32010KT P6SM SCT040
     FM301600 34015G24KT P6SM BKN025=



000
FTUS43 KFSD 291734
TAFSUX
TAF
KSUX 291734Z 2918/3018 VRB04KT P6SM SKC
     FM292100 16005KT P6SM SKC
     FM300300 13005KT P6SM BKN080
     FM301300 30008KT P6SM SCT050
     FM301600 34014G22KT P6SM SCT025=



000
FTUS43 KFSD 291134
TAFSUX
TAF
KSUX 291134Z 2912/3012 VRB04KT P6SM SKC
     FM292100 16005KT P6SM SKC
     FM300300 13005KT P6SM BKN100=



000
FTUS43 KFSD 291134
TAFHON
TAF
KHON 291134Z 2912/3012 VRB03KT P6SM BKN035
     FM291400 VRB03KT P6SM SKC
     FM291800 17009KT P6SM SKC
     FM300000 16004KT P6SM BKN080
     FM300800 29009KT P6SM BKN050=



000
FTUS43 KFSD 291134
TAFFSD
TAF
KFSD 291134Z 2912/3012 30005KT P6SM SCT030
      TEMPO 2912/2913 BKN030
     FM291500 VRB04KT P6SM SKC
     FM300200 17005KT P6SM BKN080
     FM301000 27005KT P6SM BKN060=



000
FTUS43 KFSD 290953 AAA
TAFFSD
TAF AMD
KFSD 290953Z 2910/3006 31009KT P6SM OVC029
      TEMPO 2910/2913 OVC035
     FM291300 VRB03KT P6SM SCT040
     FM292000 18005KT P6SM SKC
     FM300400 16005KT P6SM BKN100=



000
FTUS43 KFSD 290544
TAFHON
TAF
KHON 290544Z 2906/3006 31007KT P6SM OVC040
     FM291200 VRB03KT P6SM SCT040
     FM291800 17008KT P6SM SKC
     FM300300 15006KT P6SM BKN080=



000
FTUS43 KFSD 290544
TAFSUX
TAF
KSUX 290544Z 2906/3006 28006KT P6SM SCT050
     FM291300 VRB03KT P6SM SKC
     FM292100 15004KT P6SM SKC
     FM300400 11004KT P6SM SCT100=



000
FTUS43 KFSD 290544
TAFFSD
TAF
KFSD 290544Z 2906/3006 31009KT P6SM OVC040
     FM291300 VRB03KT P6SM SCT040
     FM292000 18005KT P6SM SKC
     FM300400 16005KT P6SM BKN100=



000
FTUS43 KFSD 282334
TAFSUX
TAF
KSUX 282334Z 2900/2924 31009KT P6SM SCT050
     FM290400 30005KT P6SM SKC
     FM291300 VRB03KT P6SM SKC=



000
FTUS43 KFSD 282334
TAFFSD
TAF
KFSD 282334Z 2900/2924 30012KT P6SM OVC040
     FM290300 29006KT P6SM SCT045
     FM291100 VRB03KT P6SM SKC=



000
FTUS43 KFSD 282334
TAFHON
TAF
KHON 282334Z 2900/2924 31009KT P6SM OVC045
     FM290300 29005KT P6SM SCT045
     FM290800 VRB03KT P6SM SKC
     FM291600 17004KT P6SM SKC=



000
FTUS43 KFSD 282334
TAFHON
TAF

METFSD=



000
FTUS43 KFSD 281755
TAFHON
TAF
KHON 281755Z 2818/2918 31018G27KT P6SM BKN035
     FM282230 30012KT P6SM SCT045
     FM290000 29005KT P6SM SKC
     FM291200 VRB04KT P6SM SKC=



000
FTUS43 KFSD 281755
TAFFSD
TAF
KFSD 281755Z 2818/2918 29020G29KT P6SM OVC035
     FM282100 30014G22KT P6SM BKN040
     FM290000 28010KT P6SM SCT040
     FM290300 28005KT P6SM SKC
     FM291500 VRB04KT P6SM SKC=



000
FTUS43 KFSD 281755
TAFSUX
TAF
KSUX 281755Z 2818/2918 30016G26KT P6SM BKN035
     FM282100 30014G22KT P6SM SCT045
     FM290000 29008KT P6SM SKC
     FM291700 VRB04KT P6SM SKC=



000
FTUS43 KFSD 281301 AAA
TAFSUX
TAF AMD
KSUX 281301Z 2813/2912 29012G18KT P6SM SKC
     FM281400 29016G26KT P6SM SCT035
     FM282100 30014G22KT P6SM SCT045
     FM290000 29008KT P6SM SKC=



000
FTUS43 KFSD 281257 AAA
TAFHON
TAF AMD
KHON 281257Z 2813/2912 30019G29KT P6SM OVC035
     FM281600 31018G27KT P6SM BKN035
     FM282230 30012KT P6SM SCT045
     FM290000 29005KT P6SM SKC=



000
FTUS43 KFSD 281121
TAFFSD
TAF
KFSD 281121Z 2812/2912 29017G26KT P6SM OVC035
      TEMPO 2813/2816 BKN030
     FM282100 30014G22KT P6SM BKN040
     FM290000 28010KT P6SM SCT040
     FM290300 28005KT P6SM SKC=



000
FTUS43 KFSD 281121
TAFSUX
TAF
KSUX 281121Z 2812/2912 28010KT P6SM SKC
     FM281400 29016G26KT P6SM SCT035
     FM282100 30014G22KT P6SM SCT045
     FM290000 29008KT P6SM SKC=



000
FTUS43 KFSD 281121
TAFHON
TAF
KHON 281121Z 2812/2912 30019G29KT P6SM OVC030
     FM281600 31018G27KT P6SM BKN035
     FM282230 30012KT P6SM SCT045
     FM290000 29005KT P6SM SKC=



000
FTUS43 KFSD 280952 AAA
TAFSUX
TAF AMD
KSUX 280952Z 2810/2906 30011G18KT P6SM SKC
     FM281500 32018G25KT P6SM BKN120
     FM290000 29008KT P6SM SKC=



000
FTUS43 KFSD 280952 AAA
TAFSUX
TAF AMD
KSUX 280952Z 2810/2906 30011G18KT P6SM SKC
     FM281500 32018G25KT P6SM BKN120
     FM290000 29008KT P6SM SKC=



000
FTUS43 KFSD 280520
TAFHON
TAF
KHON 280520Z 2806/2906 29014KT P6SM OVC035
     FM281200 30018G25KT P6SM OVC030
     FM281600 30014G22KT P6SM BKN035
     FM290000 29007KT P6SM SCT035=



000
FTUS43 KFSD 280520
TAFSUX
TAF
KSUX 280520Z 2806/2906 29007KT P6SM FEW120
     FM281500 32018G25KT P6SM BKN120
     FM290000 29008KT P6SM SKC=



000
FTUS43 KFSD 280520
TAFFSD
TAF
KFSD 280520Z 2806/2906 28012KT P6SM SKC
     FM281000 28014KT P6SM BKN035
     FM281300 29018G25KT P6SM OVC030
     FM281800 30014G22KT P6SM BKN035
     FM290000 29010KT P6SM SCT040=



000
FTUS43 KFSD 280141 AAA
TAFHON
TAF AMD
KHON 280141Z 2802/2824 29015G20KT P6SM SCT120
     FM280600 29014KT P6SM OVC035
     FM281200 30018G25KT P6SM OVC030
     FM281600 30014G22KT P6SM BKN035=



000
FTUS43 KFSD 280141 AAA
TAFHON
TAF AMD
KHON 280141Z 2802/2824 29015G20KT P6SM SCT120
     FM280600 29014KT P6SM OVC035
     FM281200 30018G25KT P6SM OVC030
     FM281600 30014G22KT P6SM BKN035=



    US Dept of Commerce
    National Oceanic and Atmospheric Administration
    National Weather Service
    1325 East West Highway
    Silver Spring, MD 20910
    Page Author: NWS Internet Services Team
Disclaimer
Information Quality
Credits
Glossary
Privacy Policy
Freedom of Information Act (FOIA)
About Us
Career Opportunities